Flight Track Log - Related Links

Times and Time Zones

All times are in EDT time to prevent confusion due to time zone crossing. See the AWE997 flight status page for this flight to view local times or setup timezone preferences in your user account.

Time Position Orientation Groundspeed Altitude Reporting Facility
EDT Latitude Longitude Course Direction KTS MPH feet Rate Location/Type
Wed 10:49:12 AM 41.9167 -87.8833 90° East 189 217 2,400  Level Chicago TRACON
Wed 10:50:12 AM 41.8833 -87.8333 132° Southeast 234 269 4,200 1,736 Climbing Chicago TRACON
Wed 10:51:00 AM 41.9597 -87.4734 97° East  Level FlightAware Approximate
Wed 10:51:13 AM 41.8333 -87.7500 129° Southeast 302 348 5,900  Level Chicago TRACON
Wed 10:52:00 AM 41.9476 -87.3319 95° East  Level FlightAware Approximate
Wed 10:53:00 AM 41.9374 -87.1902 95° East  Level FlightAware Approximate
Wed 10:53:08 AM 41.8453 -87.5481 85° East 325 374 10,700  Level Chicago Center
Wed 10:54:00 AM 41.9333 -87.0482 90° East  Level FlightAware Approximate
Wed 10:54:10 AM 41.8703 -87.4275 74° East 333 383 13,200  Level Chicago Center
Wed 10:55:12 AM 41.9022 -87.2769 74° East 350 403 15,500 1,935 Climbing Chicago Center
Wed 10:56:14 AM 41.9322 -87.1400 74° East 376 433 17,200 1,452 Climbing Chicago Center
Wed 10:57:16 AM 41.9494 -86.9850 81° East 412 474 18,500 1,113 Climbing Chicago Center
Wed 10:58:18 AM 41.9511 -86.8117 89° East 450 518 19,500 1,306 Climbing Chicago Center
Wed 10:59:20 AM 41.9522 -86.6319 89° East 475 547 21,200 1,500 Climbing Chicago Center
Wed 11:00:22 AM 41.9539 -86.4469 89° East 490 564 22,600 1,104 Climbing Chicago Center
Wed 11:01:25 AM 41.9558 -86.2211 89° East 501 577 23,500 912 Climbing Chicago Center
Wed 11:02:27 AM 41.9386 -86.0281 97° East 519 597 24,500 1,161 Climbing Chicago Center
Wed 11:03:29 AM 41.9206 -85.8356 97° East 519 597 25,900 1,355 Climbing Chicago Center
Wed 11:04:31 AM 41.9028 -85.6425 97° East 519 597 27,300 1,306 Climbing Chicago Center
Wed 11:05:33 AM 41.8839 -85.4494 97° East 516 594 28,600 1,306 Climbing Chicago Center
Wed 11:06:35 AM 41.8653 -85.2569 97° East 514 592 30,000 1,366 Climbing Chicago Center
Wed 11:07:36 AM 41.8461 -85.0678 98° East 508 585 31,400 1,317 Climbing Chicago Center
Wed 11:07:57 AM 41.8383 -84.9761 96° East 525 604 31,800 1,333 Climbing Cleveland Center
Wed 11:08:57 AM 41.8181 -84.7936 98° East 513 590 33,200 1,150 Climbing Cleveland Center
Wed 11:09:57 AM 41.8017 -84.6114 97° East 508 585 34,100 900 Climbing Cleveland Center
Wed 11:10:57 AM 41.7808 -84.4233 98° East 508 585 35,000 450 Climbing Cleveland Center
Wed 11:11:57 AM 41.7742 -84.2447 93° East 503 579 35,000  Level Cleveland Center
Wed 11:12:57 AM 41.7739 -84.0553 90° East 498 573 35,000 350 Level Cleveland Center
Wed 11:13:57 AM 41.7711 -83.8714 91° East 498 573 35,700 700 Climbing Cleveland Center
Wed 11:14:57 AM 41.7700 -83.6792 90° East 503 579 36,400 650 Climbing Cleveland Center
Wed 11:15:57 AM 41.7625 -83.4950 93° East 503 579 37,000 300 Climbing Cleveland Center
Wed 11:16:57 AM 41.7464 -83.3050 96° East 503 579 37,000  Level Cleveland Center
Wed 11:17:57 AM 41.7256 -83.1178 98° East 503 579 37,000  Level Cleveland Center
Wed 11:18:57 AM 41.7067 -82.9333 98° East 503 579 37,000  Level Cleveland Center
Wed 11:19:57 AM 41.6875 -82.7408 98° East 508 585 37,000  Level Cleveland Center
Wed 11:20:57 AM 41.6678 -82.5539 98° East 508 585 37,000  Level Cleveland Center
Wed 11:21:57 AM 41.6500 -82.3700 97° East 503 579 37,000  Level Cleveland Center
Wed 11:22:57 AM 41.6300 -82.1806 98° East 508 585 37,000  Level Cleveland Center
Wed 11:23:57 AM 41.6072 -81.9939 99° East 508 585 37,000  Level Cleveland Center
Wed 11:24:57 AM 41.5886 -81.8019 97° East 508 585 37,000  Level Cleveland Center
Wed 11:25:57 AM 41.5717 -81.6322 98° East 508 585 37,000  Level Cleveland Center
Wed 11:26:57 AM 41.5522 -81.4433 98° East 513 590 37,000  Level Cleveland Center
Wed 11:27:57 AM 41.5244 -81.2597 101° East 513 590 37,000  Level Cleveland Center
Wed 11:28:57 AM 41.4628 -81.0903 116° Southeast 503 579 37,000  Level Cleveland Center
Wed 11:29:57 AM 41.3653 -80.9483 132° Southeast 497 572 37,000  Level Cleveland Center
Wed 11:30:57 AM 41.2656 -80.8125 134° Southeast 504 580 37,000  Level Cleveland Center
Wed 11:31:57 AM 41.1678 -80.6742 133° Southeast 504 580 37,000  Level Cleveland Center
Wed 11:32:57 AM 41.0678 -80.5392 134° Southeast 510 587 37,000  Level Cleveland Center
Wed 11:33:57 AM 40.9675 -80.4017 134° Southeast 510 587 37,000  Level Cleveland Center
Wed 11:34:57 AM 40.8608 -80.2564 134° Southeast 510 587 37,000  Level Cleveland Center
Wed 11:35:57 AM 40.7833 -80.1006 123° Southeast 504 580 37,000  Level Cleveland Center
Wed 11:36:57 AM 40.7325 -79.9447 113° Southeast 507 583 37,000  Level Cleveland Center
Wed 11:37:57 AM 40.6689 -79.7783 117° Southeast 507 583 37,000  Level Cleveland Center
Wed 11:38:57 AM 40.6008 -79.5986 116° Southeast 507 583 37,000 -300 Level Cleveland Center
Wed 11:39:57 AM 40.5553 -79.4217 109° East 507 583 36,400 -800 Descending Cleveland Center
Wed 11:40:57 AM 40.5242 -79.2419 103° East 502 578 35,400 -1,000 Descending Cleveland Center
Wed 11:41:57 AM 40.4969 -79.0594 101° East 502 578 34,400 -1,300 Descending Cleveland Center
Wed 11:42:57 AM 40.4672 -78.8775 102° East 507 583 32,800 -1,600 Descending Cleveland Center
Wed 11:43:57 AM 40.4372 -78.6981 102° East 507 583 31,200 -1,650 Descending Cleveland Center
Wed 11:44:57 AM 40.4094 -78.5297 102° East 512 589 29,500 -1,650 Descending Cleveland Center
Wed 11:45:57 AM 40.3767 -78.3428 103° East 517 595 27,900 -1,350 Descending Cleveland Center
Wed 11:48:17 AM 40.3039 -77.8778 101° East 539 620 25,000 -866 Descending New York Center
Wed 11:49:18 AM 40.2883 -77.6856 96° East 532 612 25,000 -443 Level New York Center
Wed 11:50:19 AM 40.2661 -77.4903 98° East 532 612 24,100 -1,672 Descending New York Center
Wed 11:51:20 AM 40.2433 -77.3031 99° East 525 604 21,600 -3,000 Descending New York Center
Wed 11:52:17 AM 40.2217 -77.1242 99° East 512 589 18,200 -2,339 Descending New York Center
Wed 11:53:18 AM 40.2031 -76.9675 99° East 491 565 17,000 -590 Descending New York Center
Wed 11:54:19 AM 40.1806 -76.7969 100° East 486 559 17,000 -198 Level New York Center
Wed 11:55:19 AM 40.1600 -76.6242 99° East 481 554 16,600 -700 Descending New York Center
Wed 11:56:19 AM 40.1411 -76.4569 98° East 471 542 15,600 -1,361 Descending New York Center
Wed 11:57:18 AM 40.1206 -76.2758 98° East 466 536 13,900 -1,412 Descending New York Center
Wed 11:58:18 AM 40.1081 -76.1364 97° East 419 482 12,800 -1,488 Descending New York Center
Wed 11:59:19 AM 40.1006 -76.0275 95° East 356 410 10,900 -1,916 Descending New York Center
Wed 12:00:17 PM 40.0897 -75.8936 96° East 333 383 9,000 -1,500 Descending New York Center
Wed 12:01:19 PM 40.0344 -75.8217 135° Southeast 297 342 7,900 -934 Descending New York Center
Wed 12:02:19 PM 39.9667 -75.7544 143° Southeast 297 342 7,100 -915 Descending New York Center
Wed 12:03:17 PM 39.9122 -75.7047 145° Southeast 272 313 6,100 -1,100 Descending New York Center
Wed 12:04:19 PM 39.8500 -75.6489 145° Southeast 260 299 4,900 -1,033 Descending New York Center
Wed 12:05:19 PM 39.8236 -75.5794 116° Southeast 242 278 4,000 -900 Descending New York Center

Login

Don't have an account? Register now (free) for customized features, flight alerts, and more!